Abney, South Carolina
Current Conditions -  °F | °C
As of 9:15 PM on Monday 24 Nov 2014 (Local Time) from KCDN Reporting Station
Scattered Clouds Scattered Clouds  
Wind Chill: 64°   Ceiling: Unl
Heat Index: 64°   Visibility: 8mi
Dew Point: 63°   Wind: 3mph
Humidity: 94%   Direction: 200°SSW
Pressure: 29.92"   Gusts: NA
Location:  34.5438°N, 80.5351°W
Report Text: KCDN 250215Z AUTO 20003KT 8SM SCT009 18/17 A2992 RMK AO2 TSNO
Loading
Personal Weather Stations






























Interactive Weather Map New forecast layout! Learn more

10-Day Weather Forecast

Advertisements
Track Severe Weather on mobile